Terminal Aerodrome Forecast
Issued by NWS

Home | Current Version | Previous Version | Text Only | Print | Product List | Glossary On
Versions: 1 2 3 4 5 6 7 8 9 10 11 12 13 14 15 16 17 18 19 20 21 22 23 24 25 26 27 28 29 30 31 32 33 34
000
FTUS41 KOKX 012042 AAB
TAFGON
TAF AMD
KGON 012042Z 0121/0218 21010KT 1/4SM FG OVC002
      TEMPO 0121/0122 1SM BR OVC008
     FM012200 22015G23KT 5SM BR VCSH BKN025
     FM020000 22018G27KT P6SM BKN050
     FM020700 25020G30KT P6SM SCT050
     FM021100 28024G34KT P6SM SCT045
     FM021400 29024G38KT P6SM SCT045=

USA.gov is the U.S. government's official web portal to all federal, state and local government web resources and services.